createdAt,value
2018-12-23T00:00:04.920Z,4.00
2018-12-23T00:01:04.826Z,4.70
2018-12-23T00:02:04.805Z,4.40
2018-12-23T00:03:04.768Z,4.20
2018-12-23T00:04:04.754Z,4.40
2018-12-23T00:05:11.505Z,4.50
2018-12-23T00:06:05.754Z,4.80
2018-12-23T00:07:04.727Z,3.70
2018-12-23T00:08:04.805Z,5.10
2018-12-23T00:09:04.746Z,4.90
2018-12-23T00:10:04.713Z,4.90
2018-12-23T00:11:04.681Z,4.80
2018-12-23T00:12:04.813Z,5.30
2018-12-23T00:13:04.664Z,4.70
2018-12-23T00:14:04.641Z,4.50
2018-12-23T00:15:04.639Z,5.00
2018-12-23T00:16:04.627Z,5.00
2018-12-23T00:17:04.636Z,5.00
2018-12-23T00:18:04.626Z,5.60
2018-12-23T00:19:04.618Z,5.50
2018-12-23T00:20:04.586Z,5.10
2018-12-23T00:21:04.579Z,5.50
2018-12-23T00:22:04.579Z,5.20
2018-12-23T00:23:04.642Z,5.70
2018-12-23T00:24:04.546Z,5.50
2018-12-23T00:25:04.533Z,4.70
2018-12-23T00:26:04.513Z,5.50
2018-12-23T00:27:04.512Z,5.40
2018-12-23T00:28:04.509Z,5.60
2018-12-23T00:29:04.559Z,6.10
2018-12-23T00:30:04.469Z,5.50
2018-12-23T00:31:04.466Z,5.30
2018-12-23T00:32:04.445Z,6.10
2018-12-23T00:33:04.459Z,6.20
2018-12-23T00:34:04.424Z,6.00
2018-12-23T00:35:04.412Z,5.40
2018-12-23T00:36:04.412Z,5.60
2018-12-23T00:37:04.391Z,6.30
2018-12-23T00:38:04.403Z,4.80
2018-12-23T00:39:04.375Z,5.30
2018-12-23T00:40:04.356Z,5.30
2018-12-23T00:41:04.346Z,5.30
2018-12-23T00:42:04.390Z,5.00
2018-12-23T00:43:04.369Z,5.20
2018-12-23T00:44:04.318Z,6.10
2018-12-23T00:45:04.320Z,5.50
2018-12-23T00:46:04.289Z,6.10
2018-12-23T00:47:04.280Z,6.20
2018-12-23T00:48:04.302Z,6.70
2018-12-23T00:49:04.260Z,5.70
2018-12-23T00:50:04.249Z,6.00
2018-12-23T00:51:04.236Z,6.10
2018-12-23T00:52:04.240Z,6.40
2018-12-23T00:53:04.235Z,6.40
2018-12-23T00:54:04.206Z,5.70
2018-12-23T00:55:04.195Z,6.20
2018-12-23T00:56:04.183Z,5.60
2018-12-23T00:57:04.197Z,6.00
2018-12-23T00:58:04.182Z,5.30
2018-12-23T00:59:04.167Z,6.00
2018-12-23T01:00:04.167Z,5.30
2018-12-23T01:01:04.125Z,6.20
2018-12-23T01:02:04.111Z,5.50
2018-12-23T01:03:04.200Z,5.50
2018-12-23T01:04:04.090Z,5.40
2018-12-23T01:05:04.083Z,6.10
2018-12-23T01:06:04.074Z,5.40
2018-12-23T01:07:04.061Z,5.10
2018-12-23T01:08:04.076Z,6.00
2018-12-23T01:09:04.038Z,5.60
2018-12-23T01:10:04.029Z,5.00
2018-12-23T01:11:04.015Z,5.10
2018-12-23T01:12:04.007Z,5.90
2018-12-23T01:13:03.995Z,5.20
2018-12-23T01:14:04.004Z,5.70
2018-12-23T01:15:03.973Z,5.20
2018-12-23T01:16:04.072Z,5.50
2018-12-23T01:17:03.951Z,6.00
2018-12-23T01:18:03.939Z,4.90
2018-12-23T01:19:03.947Z,5.40
2018-12-23T01:20:03.920Z,5.40
2018-12-23T01:21:03.933Z,5.70
2018-12-23T01:22:03.929Z,5.30
2018-12-23T01:23:03.888Z,5.10
2018-12-23T01:24:03.889Z,5.80
2018-12-23T01:25:03.863Z,5.60
2018-12-23T01:26:03.851Z,5.80
2018-12-23T01:27:11.381Z,7.00
2018-12-23T01:28:03.826Z,5.90
2018-12-23T01:29:03.833Z,6.40
2018-12-23T01:30:03.810Z,6.30
2018-12-23T01:31:03.796Z,5.60
2018-12-23T01:32:03.782Z,5.40
2018-12-23T01:33:03.799Z,5.50
2018-12-23T01:34:05.360Z,5.70
2018-12-23T01:35:03.752Z,6.40
2018-12-23T01:36:11.296Z,5.80
2018-12-23T01:37:03.732Z,6.10
2018-12-23T01:38:03.726Z,6.20
2018-12-23T01:39:03.733Z,5.80
2018-12-23T01:40:03.695Z,6.00
2018-12-23T01:41:04.538Z,6.20
2018-12-23T01:42:03.699Z,6.50
2018-12-23T01:43:13.507Z,6.50
2018-12-23T01:44:03.659Z,6.40
2018-12-23T01:45:03.686Z,6.50
2018-12-23T01:46:03.642Z,5.70
2018-12-23T01:47:03.621Z,6.40
2018-12-23T01:48:03.611Z,6.50
2018-12-23T01:49:03.607Z,6.30
2018-12-23T01:51:13.855Z,4.70
2018-12-23T01:52:13.824Z,6.20
2018-12-23T01:53:13.819Z,6.00
2018-12-23T01:54:13.804Z,6.50
2018-12-23T01:55:13.813Z,6.60
2018-12-23T01:56:13.787Z,7.00
2018-12-23T01:57:13.779Z,6.60
2018-12-23T01:58:13.762Z,6.80
2018-12-23T01:59:13.750Z,6.30
2018-12-23T02:00:13.760Z,7.20
2018-12-23T02:01:13.728Z,7.30
2018-12-23T02:02:13.719Z,7.10
2018-12-23T02:03:13.706Z,6.80
2018-12-23T02:04:13.697Z,6.60
2018-12-23T02:05:13.709Z,7.50
2018-12-23T02:06:13.681Z,7.40
2018-12-23T02:07:13.670Z,7.10
2018-12-23T02:08:13.657Z,7.20
2018-12-23T02:09:13.644Z,6.90
2018-12-23T02:10:13.653Z,6.70
2018-12-23T02:11:13.627Z,6.60
2018-12-23T02:12:13.610Z,8.30
2018-12-23T02:13:13.600Z,7.30
2018-12-23T02:14:13.590Z,7.40
2018-12-23T02:15:13.600Z,7.90
2018-12-23T02:16:13.574Z,7.00
2018-12-23T02:17:13.561Z,7.60
2018-12-23T02:18:13.546Z,7.90
2018-12-23T02:19:13.556Z,7.50
2018-12-23T02:20:13.531Z,7.40
2018-12-23T02:21:13.513Z,7.10
2018-12-23T02:22:13.501Z,7.70
2018-12-23T02:23:13.490Z,7.80
2018-12-23T02:24:13.541Z,7.20
2018-12-23T02:25:13.497Z,7.60
2018-12-23T02:26:13.478Z,6.70
2018-12-23T02:27:13.451Z,7.40
2018-12-23T02:28:13.477Z,7.60
2018-12-23T02:29:13.448Z,7.50
2018-12-23T02:30:13.476Z,7.80
2018-12-23T02:31:13.417Z,7.70
2018-12-23T02:32:13.417Z,7.90
2018-12-23T02:33:13.409Z,8.20
2018-12-23T02:34:13.373Z,7.50
2018-12-23T02:35:13.379Z,8.00
2018-12-23T02:36:13.361Z,8.00
2018-12-23T02:37:13.352Z,7.70
2018-12-23T02:38:13.330Z,7.60
2018-12-23T02:39:13.329Z,8.40
2018-12-23T02:40:13.385Z,8.50
2018-12-23T02:41:13.320Z,7.90
2018-12-23T02:42:13.289Z,8.00
2018-12-23T02:43:13.273Z,8.30
2018-12-23T02:44:13.263Z,7.20
2018-12-23T02:45:13.254Z,7.50
2018-12-23T02:46:13.259Z,8.00
2018-12-23T02:47:13.239Z,7.90
2018-12-23T02:48:13.225Z,8.10
2018-12-23T02:49:13.208Z,7.90
2018-12-23T02:50:13.205Z,7.60
2018-12-23T02:51:13.207Z,7.60
2018-12-23T02:52:13.181Z,7.50
2018-12-23T02:53:13.167Z,8.20
2018-12-23T02:54:13.168Z,7.80
2018-12-23T02:55:13.148Z,7.90
2018-12-23T02:56:13.165Z,8.10
2018-12-23T02:57:13.143Z,7.40
2018-12-23T02:58:13.114Z,7.10
2018-12-23T02:59:13.103Z,7.30
2018-12-23T03:00:13.095Z,7.90
2018-12-23T03:01:13.102Z,7.30
2018-12-23T03:02:13.070Z,7.60
2018-12-23T03:03:13.060Z,8.10
2018-12-23T03:04:13.046Z,7.30
2018-12-23T03:05:13.051Z,7.70
2018-12-23T03:06:13.049Z,7.10
2018-12-23T03:07:13.124Z,8.10
2018-12-23T03:08:13.014Z,8.10
2018-12-23T03:09:13.003Z,7.70
2018-12-23T03:10:12.996Z,8.00
2018-12-23T03:11:13.044Z,8.50
2018-12-23T03:12:12.962Z,7.20
2018-12-23T03:13:12.955Z,8.00
2018-12-23T03:14:12.939Z,7.40
2018-12-23T03:15:12.932Z,7.80
2018-12-23T03:16:12.922Z,7.20
2018-12-23T03:17:12.930Z,8.60
2018-12-23T03:18:12.919Z,8.00
2018-12-23T03:19:12.890Z,8.10
2018-12-23T03:20:12.878Z,7.90
2018-12-23T03:21:12.866Z,7.70
2018-12-23T03:22:12.874Z,8.20
2018-12-23T03:23:12.850Z,8.40
2018-12-23T03:24:12.837Z,8.20
2018-12-23T03:25:12.828Z,8.20
2018-12-23T03:26:12.839Z,8.60
2018-12-23T03:27:12.826Z,9.10
2018-12-23T03:28:12.797Z,8.10
2018-12-23T03:29:12.780Z,8.00
2018-12-23T03:30:12.784Z,7.40
2018-12-23T03:31:12.774Z,8.50
2018-12-23T03:32:12.748Z,7.50
2018-12-23T03:33:12.757Z,8.10
2018-12-23T03:34:12.725Z,8.30
2018-12-23T03:35:12.750Z,7.60
2018-12-23T03:36:15.217Z,8.30
2018-12-23T03:37:12.697Z,7.90
2018-12-23T03:38:12.708Z,7.20
2018-12-23T03:39:12.671Z,7.70
2018-12-23T03:40:12.685Z,9.20
2018-12-23T03:41:12.654Z,7.80
2018-12-23T03:42:12.648Z,7.80
2018-12-23T03:43:12.662Z,8.40
2018-12-23T03:44:12.620Z,8.20
2018-12-23T03:45:12.609Z,8.10
2018-12-23T03:46:12.601Z,8.50
2018-12-23T03:47:12.587Z,7.40
2018-12-23T03:48:12.580Z,8.10
2018-12-23T03:49:12.600Z,7.90
2018-12-23T03:50:12.571Z,8.20
2018-12-23T03:51:12.574Z,8.10
2018-12-23T03:52:12.547Z,8.20
2018-12-23T03:53:12.532Z,7.80
2018-12-23T03:54:12.556Z,7.70
2018-12-23T03:55:12.529Z,8.00
2018-12-23T03:56:12.560Z,8.20
2018-12-23T03:57:12.485Z,8.50
2018-12-23T03:58:12.508Z,8.20
2018-12-23T03:59:12.500Z,7.90
2018-12-23T04:00:12.471Z,8.20
2018-12-23T04:01:12.442Z,8.60
2018-12-23T04:02:12.549Z,7.70
2018-12-23T04:03:12.421Z,7.70
2018-12-23T04:04:12.407Z,8.40
2018-12-23T04:05:12.414Z,8.30
2018-12-23T04:06:12.408Z,7.80
2018-12-23T04:07:12.373Z,8.10
2018-12-23T04:08:12.371Z,8.00
2018-12-23T04:09:12.459Z,8.00
2018-12-23T04:10:12.363Z,8.50
2018-12-23T04:11:12.339Z,8.20
2018-12-23T04:12:12.325Z,7.80
2018-12-23T04:13:12.318Z,7.80
2018-12-23T04:14:12.325Z,8.80
2018-12-23T04:15:12.330Z,9.60
2018-12-23T04:16:12.275Z,9.10
2018-12-23T04:17:12.375Z,7.80
2018-12-23T04:18:12.255Z,8.60
2018-12-23T04:19:21.061Z,8.80
2018-12-23T04:20:21.081Z,8.30
2018-12-23T04:21:21.041Z,9.10
2018-12-23T04:22:19.754Z,8.70
2018-12-23T04:23:19.746Z,8.10
2018-12-23T04:24:19.733Z,8.40
2018-12-23T04:25:12.181Z,8.80
2018-12-23T04:26:12.192Z,8.90
2018-12-23T04:27:12.160Z,8.30
2018-12-23T04:28:12.149Z,7.90
2018-12-23T04:29:12.135Z,9.00
2018-12-23T04:30:12.133Z,8.40
2018-12-23T04:31:12.139Z,8.10
2018-12-23T04:32:12.108Z,8.10
2018-12-23T04:33:12.118Z,9.00
2018-12-23T04:34:12.122Z,8.60
2018-12-23T04:35:12.074Z,8.60
2018-12-23T04:36:12.083Z,9.00
2018-12-23T04:37:12.074Z,8.80
2018-12-23T04:38:12.062Z,8.60
2018-12-23T04:39:12.042Z,8.40
2018-12-23T04:40:12.025Z,8.50
2018-12-23T04:41:12.015Z,8.30
2018-12-23T04:42:12.046Z,8.00
2018-12-23T04:43:11.998Z,8.60
2018-12-23T04:44:11.980Z,7.60
2018-12-23T04:45:11.976Z,8.50
2018-12-23T04:46:11.957Z,9.10
2018-12-23T04:47:11.975Z,7.50
2018-12-23T04:48:11.964Z,8.20
2018-12-23T04:49:11.945Z,8.70
2018-12-23T04:50:11.921Z,7.90
2018-12-23T04:51:11.910Z,8.70
2018-12-23T04:52:11.927Z,8.70
2018-12-23T04:53:11.889Z,9.30
2018-12-23T04:54:11.871Z,8.50
2018-12-23T04:55:11.874Z,8.70
2018-12-23T04:56:11.861Z,8.50
2018-12-23T04:57:11.845Z,7.80
2018-12-23T04:58:11.856Z,7.90
2018-12-23T04:59:11.825Z,8.10
2018-12-23T05:00:11.810Z,8.60
2018-12-23T05:01:11.796Z,7.80
2018-12-23T05:02:11.934Z,8.70
2018-12-23T05:03:11.778Z,8.30
2018-12-23T05:04:11.793Z,7.50
2018-12-23T05:05:11.801Z,7.60
2018-12-23T05:06:11.743Z,7.90
2018-12-23T05:07:11.738Z,8.20
2018-12-23T05:08:11.726Z,7.90
2018-12-23T05:09:11.744Z,8.00
2018-12-23T05:10:11.717Z,8.10
2018-12-23T05:11:11.735Z,8.00
2018-12-23T05:12:11.724Z,8.50
2018-12-23T05:13:11.666Z,8.20
2018-12-23T05:14:11.707Z,8.10
2018-12-23T05:15:11.706Z,7.50
2018-12-23T05:16:11.639Z,8.00
2018-12-23T05:17:11.626Z,8.10
2018-12-23T05:18:11.619Z,8.30
2018-12-23T05:19:11.635Z,8.00
2018-12-23T05:20:11.600Z,7.60
2018-12-23T05:21:11.608Z,7.00
2018-12-23T05:22:11.572Z,7.80
2018-12-23T05:23:11.573Z,7.70
2018-12-23T05:24:11.554Z,8.00
2018-12-23T05:25:11.557Z,8.30
2018-12-23T05:26:11.546Z,7.80
2018-12-23T05:27:11.539Z,7.20
2018-12-23T05:28:11.510Z,7.90
2018-12-23T05:29:11.502Z,8.50
2018-12-23T05:30:11.509Z,8.10
2018-12-23T05:31:11.480Z,7.80
2018-12-23T05:32:11.499Z,7.70
2018-12-23T05:33:11.461Z,6.90
2018-12-23T05:34:11.459Z,7.40
2018-12-23T05:35:11.436Z,7.60
2018-12-23T05:36:11.439Z,7.60
2018-12-23T05:37:11.416Z,7.60
2018-12-23T05:38:11.428Z,6.80
2018-12-23T05:39:11.396Z,7.80
2018-12-23T05:40:11.414Z,7.10
2018-12-23T05:41:11.389Z,7.60
2018-12-23T05:42:11.380Z,6.60
2018-12-23T05:43:11.350Z,7.20
2018-12-23T05:44:11.342Z,7.20
2018-12-23T05:45:11.346Z,8.10
2018-12-23T05:46:11.357Z,7.20
2018-12-23T05:47:11.307Z,7.30
2018-12-23T05:48:11.294Z,6.50
2018-12-23T05:49:11.295Z,7.40
2018-12-23T05:50:11.280Z,7.50
2018-12-23T05:51:11.267Z,6.60
2018-12-23T05:52:11.406Z,7.30
2018-12-23T05:53:11.246Z,7.20
2018-12-23T05:54:11.271Z,6.70
2018-12-23T05:55:11.248Z,6.80
2018-12-23T05:56:11.213Z,6.80
2018-12-23T05:57:11.219Z,7.10
2018-12-23T05:58:11.193Z,7.30
2018-12-23T05:59:11.214Z,7.40
2018-12-23T06:00:11.173Z,6.90
2018-12-23T06:01:11.281Z,7.50
2018-12-23T06:02:11.193Z,7.10
2018-12-23T06:03:11.166Z,6.60
2018-12-23T06:04:11.132Z,6.80
2018-12-23T06:05:11.186Z,6.70
2018-12-23T06:06:11.098Z,6.30
2018-12-23T06:07:11.092Z,6.90
2018-12-23T06:08:11.102Z,6.80
2018-12-23T06:09:11.111Z,6.40
2018-12-23T06:10:11.059Z,7.10
2018-12-23T06:11:11.047Z,6.90
2018-12-23T06:12:11.043Z,7.50
2018-12-23T06:13:11.080Z,7.40
2018-12-23T06:14:11.019Z,7.10
2018-12-23T06:15:11.086Z,7.50
2018-12-23T06:16:10.993Z,7.60
2018-12-23T06:17:10.984Z,8.50
2018-12-23T06:18:10.981Z,8.80
2018-12-23T06:19:10.980Z,7.70
2018-12-23T06:20:10.954Z,7.70
2018-12-23T06:21:10.944Z,7.00
2018-12-23T06:22:10.933Z,7.10
2018-12-23T06:23:10.924Z,7.30
2018-12-23T06:24:10.929Z,7.40
2018-12-23T06:25:10.902Z,7.60
2018-12-23T06:26:10.894Z,6.90
2018-12-23T06:27:10.877Z,7.80
2018-12-23T06:28:10.870Z,6.40
2018-12-23T06:29:10.879Z,6.90
2018-12-23T06:30:10.842Z,6.50
2018-12-23T06:31:10.832Z,7.00
2018-12-23T06:32:10.822Z,6.80
2018-12-23T06:33:19.356Z,6.50
2018-12-23T06:34:10.819Z,6.70
2018-12-23T06:35:10.785Z,6.20
2018-12-23T06:36:10.779Z,6.40
2018-12-23T06:37:10.768Z,6.40
2018-12-23T06:38:10.757Z,6.10
2018-12-23T06:39:10.769Z,6.30
2018-12-23T06:40:10.745Z,6.40
2018-12-23T06:41:10.724Z,6.30
2018-12-23T06:42:10.720Z,6.00
2018-12-23T06:43:10.704Z,6.00
2018-12-23T06:44:10.718Z,6.20
2018-12-23T06:45:10.688Z,6.10
2018-12-23T06:46:10.674Z,6.50
2018-12-23T06:47:10.664Z,6.50
2018-12-23T06:48:10.659Z,6.20
2018-12-23T06:49:10.639Z,6.10
2018-12-23T06:50:10.646Z,7.00
2018-12-23T06:51:10.626Z,6.50
2018-12-23T06:52:10.614Z,6.40
2018-12-23T06:53:10.595Z,6.80
2018-12-23T06:54:10.584Z,6.20
2018-12-23T06:55:10.594Z,7.00
2018-12-23T06:56:10.566Z,6.50
2018-12-23T06:57:10.556Z,6.80
2018-12-23T06:58:10.550Z,7.00
2018-12-23T06:59:10.536Z,6.20
2018-12-23T07:00:10.524Z,6.40
2018-12-23T07:01:10.581Z,6.00
2018-12-23T07:02:10.501Z,6.70
2018-12-23T07:03:10.489Z,6.40
2018-12-23T07:04:10.479Z,6.40
2018-12-23T07:05:10.468Z,6.70
2018-12-23T07:06:10.499Z,7.00
2018-12-23T07:07:18.429Z,6.00
2018-12-23T07:08:11.459Z,6.00
2018-12-23T07:09:10.479Z,6.30
2018-12-23T07:10:10.412Z,6.50
2018-12-23T07:11:10.426Z,7.00
2018-12-23T07:12:10.390Z,6.20
2018-12-23T07:13:10.399Z,6.40
2018-12-23T07:14:10.384Z,6.50
2018-12-23T07:15:10.374Z,6.30
2018-12-23T07:16:10.370Z,6.00
2018-12-23T07:17:10.339Z,5.90
2018-12-23T07:18:10.327Z,6.10
2018-12-23T07:19:10.317Z,6.70
2018-12-23T07:20:10.306Z,5.60
2018-12-23T07:21:10.316Z,5.70
2018-12-23T07:22:10.290Z,5.40
2018-12-23T07:23:10.296Z,5.90
2018-12-23T07:24:10.275Z,5.90
2018-12-23T07:25:10.291Z,5.60
2018-12-23T07:26:10.267Z,5.70
2018-12-23T07:27:10.262Z,5.70
2018-12-23T07:28:10.222Z,5.30
2018-12-23T07:29:10.399Z,5.90
2018-12-23T07:30:10.413Z,5.40
2018-12-23T07:31:10.335Z,6.00
2018-12-23T07:32:10.211Z,5.60
2018-12-23T07:33:10.197Z,5.90
2018-12-23T07:34:10.158Z,5.60
2018-12-23T07:35:10.143Z,5.60
2018-12-23T07:36:10.193Z,6.20
2018-12-23T07:37:10.123Z,5.00
2018-12-23T07:38:10.139Z,4.90
2018-12-23T07:39:10.107Z,4.80
2018-12-23T07:40:10.180Z,5.70
2018-12-23T07:41:10.097Z,5.30
2018-12-23T07:42:10.076Z,5.40
2018-12-23T07:43:10.091Z,5.40
2018-12-23T07:44:10.054Z,5.10
2018-12-23T07:45:10.069Z,4.80
2018-12-23T07:46:10.059Z,4.80
2018-12-23T07:47:10.126Z,4.40
2018-12-23T07:48:10.026Z,4.60
2018-12-23T07:49:09.991Z,4.20
2018-12-23T07:50:09.985Z,4.30
2018-12-23T07:51:09.978Z,4.50
2018-12-23T07:52:09.974Z,5.10
2018-12-23T07:53:09.983Z,4.80
2018-12-23T07:54:09.940Z,4.90
2018-12-23T07:55:09.936Z,4.20
2018-12-23T07:56:09.919Z,3.90
2018-12-23T07:57:09.912Z,4.70
2018-12-23T07:58:09.915Z,4.20
2018-12-23T07:59:09.910Z,3.90
2018-12-23T08:00:09.879Z,4.80
2018-12-23T08:01:09.897Z,4.70
2018-12-23T08:02:09.866Z,4.50
2018-12-23T08:03:09.840Z,5.40
2018-12-23T08:04:09.852Z,4.50
2018-12-23T08:05:09.839Z,4.40
2018-12-23T08:06:09.809Z,4.50
2018-12-23T08:07:09.810Z,4.50
2018-12-23T08:08:09.793Z,4.40
2018-12-23T08:09:09.846Z,4.60
2018-12-23T08:10:09.767Z,4.70
2018-12-23T08:11:09.793Z,4.80
2018-12-23T08:12:09.778Z,4.10
2018-12-23T08:13:09.774Z,4.30
2018-12-23T08:14:09.721Z,4.20
2018-12-23T08:15:09.771Z,4.30
2018-12-23T08:16:09.748Z,4.50
2018-12-23T08:17:09.694Z,4.20
2018-12-23T08:18:09.718Z,3.70
2018-12-23T08:19:09.665Z,4.10
2018-12-23T08:20:09.695Z,4.20
2018-12-23T08:21:09.644Z,4.20
2018-12-23T08:22:09.644Z,4.60
2018-12-23T08:23:09.648Z,4.10
2018-12-23T08:24:09.619Z,4.40
2018-12-23T08:25:09.633Z,4.70
2018-12-23T08:26:09.597Z,4.50
2018-12-23T08:27:09.585Z,5.70
2018-12-23T08:28:09.585Z,5.20
2018-12-23T08:29:09.583Z,4.40
2018-12-23T08:30:09.574Z,4.80
2018-12-23T08:31:09.537Z,4.70
2018-12-23T08:32:09.547Z,4.10
2018-12-23T08:33:09.522Z,4.40
2018-12-23T08:34:09.510Z,4.30
2018-12-23T08:35:09.522Z,4.10
2018-12-23T08:36:09.482Z,4.40
2018-12-23T08:37:09.495Z,4.80
2018-12-23T08:38:09.462Z,3.90
2018-12-23T08:39:09.462Z,3.90
2018-12-23T08:40:09.469Z,4.30
2018-12-23T08:41:09.435Z,3.80
2018-12-23T08:42:09.420Z,4.10
2018-12-23T08:43:09.425Z,4.20
2018-12-23T08:44:09.425Z,4.30
2018-12-23T08:45:09.397Z,3.80
2018-12-23T08:46:09.446Z,3.90
2018-12-23T08:47:09.360Z,3.50
2018-12-23T08:48:09.391Z,4.10
2018-12-23T08:49:09.343Z,3.70
2018-12-23T08:50:09.335Z,3.30
2018-12-23T08:51:09.350Z,3.60
2018-12-23T08:52:09.347Z,3.70
2018-12-23T08:53:09.296Z,3.90
2018-12-23T08:54:09.305Z,3.00
2018-12-23T08:55:18.092Z,4.20
2018-12-23T08:56:18.296Z,3.70
2018-12-23T08:57:16.803Z,3.80
2018-12-23T08:58:16.789Z,3.60
2018-12-23T08:59:16.777Z,3.60
2018-12-23T09:00:16.765Z,3.40
2018-12-23T09:01:18.897Z,3.80
2018-12-23T09:02:16.737Z,3.90
2018-12-23T09:03:18.984Z,3.60
2018-12-23T09:04:09.177Z,3.40
2018-12-23T09:05:09.167Z,3.10
2018-12-23T09:06:09.177Z,3.40
2018-12-23T09:07:09.146Z,3.20
2018-12-23T09:08:09.139Z,3.50
2018-12-23T09:09:09.131Z,3.70
2018-12-23T09:10:16.710Z,3.80
2018-12-23T09:11:09.125Z,3.90
2018-12-23T09:12:09.094Z,3.50
2018-12-23T09:13:09.093Z,3.40
2018-12-23T09:14:09.084Z,4.70
2018-12-23T09:15:09.068Z,4.20
2018-12-23T09:16:09.097Z,3.90
2018-12-23T09:17:09.153Z,4.20
2018-12-23T09:18:09.127Z,4.20
2018-12-23T09:19:09.073Z,4.40
2018-12-23T09:20:09.106Z,4.20
2018-12-23T09:21:08.991Z,5.90
2018-12-23T09:22:09.055Z,4.20
2018-12-23T09:23:08.977Z,4.00
2018-12-23T09:24:08.960Z,4.00
2018-12-23T09:25:08.983Z,4.10
2018-12-23T09:26:08.937Z,4.10
2018-12-23T09:27:09.037Z,3.90
2018-12-23T09:28:09.063Z,4.10
2018-12-23T09:29:08.908Z,3.70
2018-12-23T09:30:08.898Z,4.40
2018-12-23T09:31:08.912Z,4.20
2018-12-23T09:32:08.907Z,4.20
2018-12-23T09:33:08.864Z,4.90
2018-12-23T09:34:08.885Z,4.50
2018-12-23T09:35:08.954Z,4.60
2018-12-23T09:36:08.980Z,4.30
2018-12-23T09:37:08.860Z,4.10
2018-12-23T09:38:08.858Z,4.20
2018-12-23T09:39:08.802Z,3.90
2018-12-23T09:40:08.785Z,4.30
2018-12-23T09:41:08.775Z,3.50
2018-12-23T09:42:08.796Z,3.80
2018-12-23T09:43:08.785Z,4.20
2018-12-23T09:44:08.747Z,4.30
2018-12-23T09:45:08.733Z,4.00
2018-12-23T09:46:08.724Z,4.20
2018-12-23T09:47:08.710Z,3.70
2018-12-23T09:48:08.733Z,3.50
2018-12-23T09:49:08.702Z,4.30
2018-12-23T09:50:08.676Z,3.90
2018-12-23T09:51:08.669Z,4.00
2018-12-23T09:52:08.655Z,3.90
2018-12-23T09:53:08.670Z,3.70
2018-12-23T09:54:08.641Z,3.90
2018-12-23T09:55:08.627Z,3.80
2018-12-23T09:56:08.617Z,4.00
2018-12-23T09:57:08.613Z,3.70
2018-12-23T09:58:08.609Z,4.20
2018-12-23T09:59:08.600Z,3.60
2018-12-23T10:00:08.576Z,3.60
2018-12-23T10:01:16.114Z,3.90
2018-12-23T10:02:08.545Z,4.10
2018-12-23T10:03:08.556Z,3.70
2018-12-23T10:04:08.543Z,5.80
2018-12-23T10:05:08.511Z,4.00
2018-12-23T10:06:08.507Z,4.50
2018-12-23T10:07:08.515Z,4.60
2018-12-23T10:08:10.280Z,4.70
2018-12-23T10:09:08.500Z,4.70
2018-12-23T10:10:08.586Z,4.20
2018-12-23T10:11:08.451Z,4.90
2018-12-23T10:12:08.438Z,4.20
2018-12-23T10:13:15.990Z,4.50
2018-12-23T10:14:17.069Z,3.80
2018-12-23T10:15:15.987Z,4.10
2018-12-23T10:16:08.395Z,4.20
2018-12-23T10:17:08.384Z,3.90
2018-12-23T10:18:17.209Z,3.80
2018-12-23T10:19:08.375Z,4.40
2018-12-23T10:20:08.377Z,3.80
2018-12-23T10:21:10.203Z,4.10
2018-12-23T10:22:08.329Z,3.80
2018-12-23T10:23:08.549Z,4.60
2018-12-23T10:24:08.310Z,4.20
2018-12-23T10:25:08.299Z,4.30
2018-12-23T10:26:08.309Z,4.30
2018-12-23T10:27:08.279Z,4.30
2018-12-23T10:28:08.343Z,4.80
2018-12-23T10:29:08.256Z,4.20
2018-12-23T10:30:08.245Z,4.90
2018-12-23T10:31:08.264Z,4.40
2018-12-23T10:32:08.223Z,5.20
2018-12-23T10:33:08.212Z,5.10
2018-12-23T10:34:08.203Z,4.90
2018-12-23T10:35:08.192Z,4.60
2018-12-23T10:36:08.201Z,4.70
2018-12-23T10:37:08.170Z,4.50
2018-12-23T10:38:08.174Z,5.00
2018-12-23T10:39:08.159Z,4.30
2018-12-23T10:40:08.139Z,4.50
2018-12-23T10:41:08.129Z,4.40
2018-12-23T10:42:08.137Z,4.40
2018-12-23T10:43:08.102Z,4.40
2018-12-23T10:44:08.093Z,4.50
2018-12-23T10:45:08.091Z,4.30
2018-12-23T10:46:08.070Z,4.10
2018-12-23T10:47:08.105Z,4.10
2018-12-23T10:48:08.079Z,4.50
2018-12-23T10:49:08.056Z,3.90
2018-12-23T10:50:08.025Z,4.20
2018-12-23T10:51:08.028Z,3.80
2018-12-23T10:52:08.114Z,4.30
2018-12-23T10:53:07.999Z,4.40
2018-12-23T10:54:07.986Z,4.20
2018-12-23T10:55:15.527Z,3.80
2018-12-23T10:56:07.959Z,4.30
2018-12-23T10:57:07.949Z,4.10
2018-12-23T10:58:07.959Z,4.40
2018-12-23T10:59:07.928Z,4.70
2018-12-23T11:00:07.919Z,4.30
2018-12-23T11:01:07.908Z,4.40
2018-12-23T11:02:13.581Z,4.70
2018-12-23T11:03:08.908Z,4.10
2018-12-23T11:04:07.891Z,5.00
2018-12-23T11:05:07.868Z,4.90
2018-12-23T11:06:07.858Z,4.70
2018-12-23T11:07:07.899Z,4.70
2018-12-23T11:08:07.858Z,4.80
2018-12-23T11:09:07.828Z,4.70
2018-12-23T11:10:07.812Z,4.60
2018-12-23T11:11:07.801Z,4.80
2018-12-23T11:12:07.824Z,5.30
2018-12-23T11:13:07.806Z,6.10
2018-12-23T11:14:07.768Z,5.30
2018-12-23T11:15:07.763Z,5.10
2018-12-23T11:16:07.804Z,5.60
2018-12-23T11:17:07.803Z,5.10
2018-12-23T11:18:07.873Z,4.70
2018-12-23T11:19:07.805Z,6.00
2018-12-23T11:20:07.761Z,5.40
2018-12-23T11:21:07.691Z,5.10
2018-12-23T11:22:07.745Z,5.50
2018-12-23T11:23:07.704Z,4.30
2018-12-23T11:24:07.761Z,5.00
2018-12-23T11:25:07.737Z,4.40
2018-12-23T11:26:07.637Z,4.30
2018-12-23T11:27:07.626Z,4.40
2018-12-23T11:28:07.670Z,4.20
2018-12-23T11:29:07.639Z,5.20
2018-12-23T11:30:07.592Z,4.30
2018-12-23T11:31:07.586Z,5.30
2018-12-23T11:32:07.608Z,4.60
2018-12-23T11:33:07.691Z,4.30
2018-12-23T11:34:07.608Z,4.80
2018-12-23T11:35:07.541Z,4.90
2018-12-23T11:36:07.531Z,4.40
2018-12-23T11:37:07.548Z,4.10
2018-12-23T11:38:07.511Z,4.10
2018-12-23T11:39:07.593Z,3.90
2018-12-23T11:40:07.529Z,4.00
2018-12-23T11:41:07.515Z,4.00
2018-12-23T11:42:07.508Z,4.40
2018-12-23T11:43:07.500Z,4.10
2018-12-23T11:44:07.485Z,3.70
2018-12-23T11:45:07.479Z,4.60
2018-12-23T11:46:07.524Z,4.40
2018-12-23T11:47:07.415Z,3.70
2018-12-23T11:48:07.415Z,4.60
2018-12-23T11:49:07.386Z,4.90
2018-12-23T11:50:07.424Z,4.80
2018-12-23T11:51:07.374Z,4.70
2018-12-23T11:52:07.404Z,3.90
2018-12-23T11:53:07.344Z,4.50
2018-12-23T11:54:07.340Z,4.40
2018-12-23T11:55:07.379Z,4.50
2018-12-23T11:56:07.365Z,4.60
2018-12-23T11:57:07.307Z,4.70
2018-12-23T11:58:07.322Z,5.40
2018-12-23T11:59:07.319Z,5.60
2018-12-23T12:00:07.680Z,5.40
2018-12-23T12:01:07.256Z,5.80
2018-12-23T12:02:15.092Z,5.40
2018-12-23T12:03:08.236Z,4.70
2018-12-23T12:04:07.224Z,4.80
2018-12-23T12:05:07.221Z,4.90
2018-12-23T12:06:07.295Z,4.50
2018-12-23T12:07:07.204Z,4.50
2018-12-23T12:08:07.191Z,4.90
2018-12-23T12:09:07.410Z,4.90
2018-12-23T12:10:07.162Z,4.40
2018-12-23T12:11:07.169Z,5.40
2018-12-23T12:12:07.167Z,4.40
2018-12-23T12:13:07.126Z,4.00
2018-12-23T12:14:07.171Z,4.40
2018-12-23T12:15:07.110Z,5.10
2018-12-23T12:16:07.112Z,4.70
2018-12-23T12:17:07.102Z,4.10
2018-12-23T12:18:07.102Z,3.70
2018-12-23T12:19:07.071Z,5.10
2018-12-23T12:20:07.059Z,4.30
2018-12-23T12:21:07.114Z,3.40
2018-12-23T12:22:07.033Z,3.50
2018-12-23T12:23:07.022Z,3.80
2018-12-23T12:24:07.017Z,3.10
2018-12-23T12:25:07.001Z,3.30
2018-12-23T12:26:06.990Z,2.80
2018-12-23T12:27:06.997Z,3.10
2018-12-23T12:28:06.978Z,3.00
2018-12-23T12:29:06.984Z,3.20
2018-12-23T12:30:06.957Z,2.90
2018-12-23T12:31:06.938Z,2.90
2018-12-23T12:32:06.976Z,3.10
2018-12-23T12:33:06.926Z,3.10
2018-12-23T12:34:06.975Z,3.10
2018-12-23T12:35:06.943Z,2.60
2018-12-23T12:36:06.886Z,2.60
2018-12-23T12:37:06.905Z,2.80
2018-12-23T12:38:06.860Z,3.20
2018-12-23T12:39:06.862Z,3.40
2018-12-23T12:40:06.840Z,3.00
2018-12-23T12:41:06.828Z,3.50
2018-12-23T12:42:06.863Z,2.70
2018-12-23T12:43:06.821Z,3.10
2018-12-23T12:44:06.815Z,2.90
2018-12-23T12:45:06.786Z,2.70
2018-12-23T12:46:06.779Z,2.60
2018-12-23T12:47:06.813Z,2.90
2018-12-23T12:48:06.767Z,3.00
2018-12-23T12:49:06.743Z,3.20
2018-12-23T12:50:06.737Z,3.30
2018-12-23T12:51:06.740Z,3.50
2018-12-23T12:52:06.713Z,2.90
2018-12-23T12:53:06.727Z,3.50
2018-12-23T12:54:06.700Z,3.80
2018-12-23T12:55:06.687Z,4.00
2018-12-23T12:56:06.729Z,3.50
2018-12-23T12:57:06.794Z,3.80
2018-12-23T12:58:06.694Z,3.80
2018-12-23T12:59:06.675Z,3.70
2018-12-23T13:00:06.636Z,4.20
2018-12-23T13:01:06.659Z,4.60
2018-12-23T13:02:06.664Z,4.70
2018-12-23T13:03:06.604Z,6.30
2018-12-23T13:04:06.607Z,6.40
2018-12-23T13:05:06.569Z,5.10
2018-12-23T13:06:06.558Z,5.10
2018-12-23T13:07:06.547Z,5.10
2018-12-23T13:08:06.547Z,4.70
2018-12-23T13:09:06.565Z,3.70
2018-12-23T13:10:06.523Z,3.40
2018-12-23T13:11:06.508Z,4.60
2018-12-23T13:12:06.514Z,4.20
2018-12-23T13:13:06.485Z,4.90
2018-12-23T13:14:06.500Z,3.70
2018-12-23T13:15:06.461Z,3.90
2018-12-23T13:16:06.455Z,4.50
2018-12-23T13:17:06.504Z,5.40
2018-12-23T13:18:06.440Z,5.00
2018-12-23T13:19:06.488Z,5.50